createdAt,value
2023-01-13T00:01:29.253Z,13.02
2023-01-13T00:03:57.559Z,10.68
2023-01-13T00:06:26.269Z,8.85
2023-01-13T00:08:54.599Z,15.43
2023-01-13T00:11:22.736Z,8.55
2023-01-13T00:13:50.668Z,7.25
2023-01-13T00:16:19.265Z,9.88
2023-01-13T00:18:47.847Z,12.52
2023-01-13T00:21:21.150Z,11.38
2023-01-13T00:23:48.791Z,12.40
2023-01-13T00:26:19.603Z,15.15
2023-01-13T00:28:47.559Z,8.90
2023-01-13T00:31:18.211Z,8.95
2023-01-13T00:33:46.558Z,15.77
2023-01-13T00:36:16.053Z,12.82
2023-01-13T00:38:44.491Z,3.92
2023-01-13T00:41:14.321Z,13.90
2023-01-13T00:46:11.236Z,9.57
2023-01-13T00:48:39.324Z,13.18
2023-01-13T00:51:10.044Z,16.52
2023-01-13T00:53:40.130Z,10.73
2023-01-13T00:56:14.481Z,8.88
2023-01-13T00:58:43.227Z,13.52
2023-01-13T01:01:14.297Z,13.40
2023-01-13T01:03:41.991Z,10.18
2023-01-13T01:06:15.085Z,7.25
2023-01-13T01:08:43.315Z,8.93
2023-01-13T01:11:16.940Z,10.20
2023-01-13T01:13:45.611Z,9.98
2023-01-13T01:16:15.674Z,9.93
2023-01-13T01:18:45.416Z,11.25
2023-01-13T01:21:14.219Z,11.07
2023-01-13T01:23:42.446Z,13.30
2023-01-13T01:26:25.084Z,7.25
2023-01-13T01:28:52.738Z,12.93
2023-01-13T01:31:26.378Z,6.40
2023-01-13T01:33:55.145Z,8.43
2023-01-13T01:36:26.303Z,11.65
2023-01-13T01:38:55.895Z,7.55
2023-01-13T01:41:26.126Z,15.70
2023-01-13T01:44:21.163Z,13.95
2023-01-13T01:46:48.979Z,11.35
2023-01-13T01:49:37.137Z,20.42
2023-01-13T01:52:15.752Z,15.30
2023-01-13T01:54:49.860Z,8.93
2023-01-13T01:57:27.330Z,13.50
2023-01-13T01:59:55.695Z,9.52
2023-01-13T02:02:23.600Z,12.98
2023-01-13T02:04:53.731Z,13.00
2023-01-13T02:07:30.622Z,11.55
2023-01-13T02:10:01.658Z,30.33
2023-01-13T02:12:29.887Z,7.95
2023-01-13T02:15:05.990Z,8.52
2023-01-13T02:17:48.270Z,8.77
2023-01-13T02:20:51.433Z,18.63
2023-01-13T02:24:13.374Z,12.60
2023-01-13T02:27:02.308Z,13.35
2023-01-13T02:30:03.801Z,10.53
2023-01-13T02:33:07.422Z,11.25
2023-01-13T02:36:02.866Z,5.32
2023-01-13T02:38:51.706Z,10.38
2023-01-13T02:41:50.661Z,7.70
2023-01-13T02:44:24.322Z,5.88
2023-01-13T02:47:08.592Z,6.90
2023-01-13T02:49:54.145Z,12.30
2023-01-13T02:53:02.927Z,9.95
2023-01-13T02:55:41.147Z,9.20
2023-01-13T02:58:13.010Z,9.73
2023-01-13T03:00:41.640Z,18.33
2023-01-13T03:03:09.307Z,8.73
2023-01-13T03:05:37.904Z,14.00
2023-01-13T03:08:43.396Z,9.70
2023-01-13T03:11:13.530Z,8.95
2023-01-13T03:13:50.006Z,8.55
2023-01-13T03:16:31.109Z,10.45
2023-01-13T03:19:26.353Z,12.02
2023-01-13T03:22:15.975Z,9.38
2023-01-13T03:24:50.238Z,4.90
2023-01-13T03:27:35.156Z,11.23
2023-01-13T03:30:12.798Z,11.63
2023-01-13T03:32:46.473Z,14.20
2023-01-13T03:35:25.941Z,13.70
2023-01-13T03:38:25.507Z,13.38
2023-01-13T03:40:57.990Z,9.13
2023-01-13T03:43:59.843Z,8.88
2023-01-13T03:46:33.963Z,12.88
2023-01-13T03:49:04.550Z,13.05
2023-01-13T03:51:35.965Z,11.77
2023-01-13T03:54:09.134Z,9.30
2023-01-13T03:56:43.596Z,16.60
2023-01-13T03:59:17.211Z,13.88
2023-01-13T04:01:54.648Z,11.88
2023-01-13T04:04:36.506Z,4.28
2023-01-13T04:07:16.283Z,10.98
2023-01-13T04:09:52.653Z,8.63
2023-01-13T04:12:51.813Z,10.82
2023-01-13T04:15:23.210Z,9.48
2023-01-13T04:17:52.064Z,7.05
2023-01-13T04:20:19.959Z,8.95
2023-01-13T04:22:47.609Z,14.98
2023-01-13T04:25:15.236Z,14.90
2023-01-13T04:27:42.811Z,12.73
2023-01-13T04:30:11.065Z,9.00
2023-01-13T04:32:38.670Z,10.60
2023-01-13T04:35:07.121Z,6.72
2023-01-13T04:37:34.695Z,13.05
2023-01-13T04:40:02.251Z,14.05
2023-01-13T04:42:29.844Z,12.32
2023-01-13T04:44:57.501Z,11.20
2023-01-13T04:47:25.172Z,15.98
2023-01-13T04:49:52.680Z,12.30
2023-01-13T04:52:20.266Z,9.43
2023-01-13T04:54:47.978Z,5.50
2023-01-13T04:57:15.702Z,7.95
2023-01-13T04:59:43.286Z,8.57
2023-01-13T05:02:15.103Z,7.20
2023-01-13T05:04:42.764Z,2.78
2023-01-13T05:07:10.348Z,3.58
2023-01-13T05:09:37.921Z,3.38
2023-01-13T05:12:23.988Z,6.68
2023-01-13T05:15:10.390Z,3.22
2023-01-13T05:17:38.417Z,4.22
2023-01-13T05:20:07.087Z,3.28
2023-01-13T05:22:53.501Z,1.90
2023-01-13T05:25:28.062Z,1.35
2023-01-13T05:28:00.208Z,1.98
2023-01-13T05:30:33.387Z,3.55
2023-01-13T05:33:00.935Z,3.40
2023-01-13T05:35:31.603Z,2.00
2023-01-13T05:37:59.618Z,3.03
2023-01-13T05:40:45.875Z,4.10
2023-01-13T05:43:22.024Z,3.50
2023-01-13T05:46:09.927Z,3.13
2023-01-13T05:48:39.673Z,2.38
2023-01-13T05:51:10.213Z,2.42
2023-01-13T05:53:38.184Z,2.15
2023-01-13T05:56:07.279Z,1.17
2023-01-13T05:58:35.305Z,1.95
2023-01-13T06:01:05.770Z,3.00
2023-01-13T06:03:33.778Z,4.80
2023-01-13T06:06:03.944Z,4.88
2023-01-13T06:08:32.348Z,3.22
2023-01-13T06:11:00.295Z,4.13
2023-01-13T06:13:28.173Z,2.72
2023-01-13T06:15:57.855Z,6.32
2023-01-13T06:18:25.634Z,1.02
2023-01-13T06:20:53.272Z,1.45
2023-01-13T06:23:21.081Z,2.47
2023-01-13T06:26:00.159Z,1.95
2023-01-13T06:28:27.869Z,3.13
2023-01-13T06:30:59.917Z,1.15
2023-01-13T06:33:39.181Z,2.30
2023-01-13T06:36:14.513Z,2.38
2023-01-13T06:38:45.356Z,2.00
2023-01-13T06:41:13.488Z,3.30
2023-01-13T06:43:41.357Z,2.83
2023-01-13T06:46:08.955Z,3.95
2023-01-13T06:48:36.578Z,4.10
2023-01-13T06:51:04.687Z,0.93
2023-01-13T06:53:32.362Z,2.30
2023-01-13T06:56:00.084Z,2.60
2023-01-13T06:58:29.381Z,1.58
2023-01-13T07:01:01.352Z,0.30
2023-01-13T07:03:29.684Z,1.30
2023-01-13T07:05:57.389Z,3.13
2023-01-13T07:08:25.055Z,3.40
2023-01-13T07:10:53.133Z,1.40
2023-01-13T07:13:40.014Z,0.85
2023-01-13T07:16:09.187Z,2.28
2023-01-13T07:18:37.305Z,1.37
2023-01-13T07:21:09.589Z,2.60
2023-01-13T07:23:39.904Z,6.93
2023-01-13T07:26:10.013Z,6.25
2023-01-13T07:28:39.127Z,5.40
2023-01-13T07:31:18.021Z,3.50
2023-01-13T07:33:46.250Z,3.55
2023-01-13T07:36:14.752Z,2.20
2023-01-13T07:38:44.560Z,1.17
2023-01-13T07:41:32.512Z,3.58
2023-01-13T07:44:02.826Z,5.32
2023-01-13T07:46:31.068Z,0.47
2023-01-13T07:48:58.742Z,3.47
2023-01-13T07:51:26.466Z,3.85
2023-01-13T07:53:54.425Z,4.13
2023-01-13T07:56:22.297Z,4.75
2023-01-13T07:58:53.324Z,4.38
2023-01-13T08:01:21.602Z,4.15
2023-01-13T08:03:49.287Z,2.08
2023-01-13T08:06:17.091Z,3.25
2023-01-13T08:08:44.648Z,2.08
2023-01-13T08:11:12.525Z,2.28
2023-01-13T08:13:40.127Z,1.60
2023-01-13T08:16:10.571Z,1.98
2023-01-13T08:18:38.790Z,5.63
2023-01-13T08:21:09.185Z,3.03
2023-01-13T08:23:37.186Z,2.78
2023-01-13T08:26:07.657Z,1.92
2023-01-13T08:28:35.476Z,4.10
2023-01-13T08:31:05.525Z,5.50
2023-01-13T08:33:33.926Z,6.53
2023-01-13T08:36:10.313Z,5.13
2023-01-13T08:38:38.307Z,6.28
2023-01-13T08:41:12.218Z,4.97
2023-01-13T08:43:39.889Z,6.80
2023-01-13T08:46:07.704Z,7.10
2023-01-13T08:48:35.403Z,2.72
2023-01-13T08:51:09.217Z,2.30
2023-01-13T08:53:36.911Z,4.47
2023-01-13T08:56:11.645Z,3.40
2023-01-13T08:58:40.721Z,3.42
2023-01-13T09:01:10.175Z,3.10
2023-01-13T09:03:39.132Z,6.82
2023-01-13T09:06:06.737Z,10.18
2023-01-13T09:08:34.763Z,9.27
2023-01-13T09:11:22.424Z,8.60
2023-01-13T09:13:50.517Z,4.75
2023-01-13T09:16:18.374Z,4.53
2023-01-13T09:18:46.066Z,5.03
2023-01-13T09:21:14.205Z,1.92
2023-01-13T09:23:41.778Z,5.18
2023-01-13T09:26:09.864Z,9.23
2023-01-13T09:28:37.442Z,3.72
2023-01-13T09:31:05.200Z,4.35
2023-01-13T09:33:51.346Z,2.05
2023-01-13T09:36:19.606Z,5.55
2023-01-13T09:38:49.373Z,4.57
2023-01-13T09:41:44.222Z,7.15
2023-01-13T09:44:24.532Z,3.85
2023-01-13T09:47:00.763Z,4.38
2023-01-13T09:49:35.795Z,5.25
2023-01-13T09:52:15.226Z,9.45
2023-01-13T09:55:05.976Z,4.95
2023-01-13T09:57:37.842Z,3.42
2023-01-13T10:00:12.404Z,7.00
2023-01-13T10:03:02.037Z,4.90
2023-01-13T10:05:42.380Z,7.55
2023-01-13T10:08:26.695Z,3.97
2023-01-13T10:10:57.804Z,7.38
2023-01-13T10:13:26.877Z,9.57
2023-01-13T10:16:15.592Z,6.43
2023-01-13T10:18:55.593Z,4.43
2023-01-13T10:21:28.945Z,7.40
2023-01-13T10:24:11.668Z,3.42
2023-01-13T10:27:01.121Z,5.18
2023-01-13T10:29:30.393Z,6.40
2023-01-13T10:31:59.865Z,6.85
2023-01-13T10:34:28.671Z,8.07
2023-01-13T10:37:03.624Z,4.53
2023-01-13T10:39:43.543Z,10.65
2023-01-13T10:42:23.059Z,9.32
2023-01-13T10:44:56.530Z,3.97
2023-01-13T10:47:36.667Z,3.97
2023-01-13T10:50:28.644Z,4.80
2023-01-13T10:53:18.260Z,3.58
2023-01-13T10:56:00.915Z,11.07
2023-01-13T10:58:29.155Z,4.70
2023-01-13T11:01:07.285Z,5.07
2023-01-13T11:03:41.687Z,3.08
2023-01-13T11:06:19.093Z,3.15
2023-01-13T11:08:49.699Z,4.18
2023-01-13T11:11:40.377Z,3.75
2023-01-13T11:14:41.486Z,7.72
2023-01-13T11:17:23.579Z,6.28
2023-01-13T11:19:59.747Z,4.15
2023-01-13T11:22:39.058Z,7.13
2023-01-13T11:25:14.009Z,18.40
2023-01-13T11:27:55.649Z,5.35
2023-01-13T11:30:38.343Z,4.80
2023-01-13T11:33:15.087Z,3.33
2023-01-13T11:35:48.105Z,2.10
2023-01-13T11:38:47.870Z,7.45
2023-01-13T11:41:28.993Z,4.60
2023-01-13T11:44:17.471Z,1.23
2023-01-13T11:46:49.908Z,3.85
2023-01-13T11:49:28.437Z,11.40
2023-01-13T11:52:00.360Z,6.70
2023-01-13T11:54:45.777Z,2.45
2023-01-13T11:57:25.460Z,2.53
2023-01-13T11:59:58.887Z,4.85
2023-01-13T12:02:58.414Z,3.00
2023-01-13T12:06:07.857Z,8.60
2023-01-13T12:08:38.647Z,5.38
2023-01-13T12:11:56.874Z,5.07
2023-01-13T12:14:32.045Z,3.47
2023-01-13T12:17:01.554Z,0.93
2023-01-13T12:19:32.888Z,2.08
2023-01-13T12:22:36.068Z,1.17
2023-01-13T12:25:37.079Z,7.15
2023-01-13T12:28:15.316Z,4.20
2023-01-13T12:30:50.911Z,5.15
2023-01-13T12:33:44.633Z,4.82
2023-01-13T12:36:18.476Z,3.75
2023-01-13T12:38:48.711Z,17.00
2023-01-13T12:42:04.188Z,2.95
2023-01-13T12:44:31.964Z,5.28
2023-01-13T12:47:00.537Z,2.70
2023-01-13T12:49:31.569Z,4.70
2023-01-13T12:52:00.181Z,3.63
2023-01-13T12:54:30.750Z,2.83
2023-01-13T12:56:59.232Z,5.75
2023-01-13T12:59:26.726Z,4.57
2023-01-13T13:02:12.941Z,5.03
2023-01-13T13:04:53.137Z,5.82
2023-01-13T13:10:15.251Z,11.40
2023-01-13T13:13:01.260Z,5.15
2023-01-13T13:15:31.331Z,9.63
2023-01-13T13:20:54.515Z,4.25
2023-01-13T13:23:36.996Z,5.63
2023-01-13T13:26:20.315Z,3.97
2023-01-13T13:29:06.738Z,4.93
2023-01-13T13:31:43.320Z,10.60
2023-01-13T13:34:20.013Z,9.98
2023-01-13T13:37:12.270Z,7.03
2023-01-13T13:40:01.046Z,10.13
2023-01-13T13:42:36.013Z,9.77
2023-01-13T13:45:34.184Z,11.65
2023-01-13T13:48:29.359Z,4.63
2023-01-13T13:51:03.982Z,11.73
2023-01-13T13:53:35.715Z,8.10
2023-01-13T13:56:13.044Z,6.72
2023-01-13T13:58:40.975Z,11.45
2023-01-13T14:01:24.851Z,11.63
2023-01-13T14:04:06.695Z,17.55
2023-01-13T14:06:34.927Z,6.38
2023-01-13T14:09:04.087Z,7.63
2023-01-13T14:11:33.699Z,7.22
2023-01-13T14:14:07.188Z,8.43
2023-01-13T14:16:36.284Z,4.55
2023-01-13T14:19:04.087Z,11.30
2023-01-13T14:21:32.194Z,13.57
2023-01-13T14:24:14.646Z,10.57
2023-01-13T14:26:42.498Z,13.05
2023-01-13T14:29:15.889Z,3.97
2023-01-13T14:31:44.220Z,6.35
2023-01-13T14:34:31.468Z,6.85
2023-01-13T14:37:02.916Z,16.73
2023-01-13T14:39:41.137Z,10.35
2023-01-13T14:42:13.747Z,6.07
2023-01-13T14:44:48.612Z,4.38
2023-01-13T14:47:26.851Z,5.93
2023-01-13T14:50:07.560Z,10.93
2023-01-13T14:52:46.555Z,6.63
2023-01-13T14:55:26.193Z,11.07
2023-01-13T14:57:54.405Z,8.90
2023-01-13T15:00:25.249Z,14.43
2023-01-13T15:02:58.714Z,7.95
2023-01-13T15:05:26.721Z,10.75
2023-01-13T15:08:14.041Z,12.07
2023-01-13T15:10:54.485Z,16.42
2023-01-13T15:13:27.547Z,8.07
2023-01-13T15:16:00.639Z,17.75
2023-01-13T15:18:28.325Z,14.20
2023-01-13T15:20:55.986Z,6.65
2023-01-13T15:23:23.794Z,10.32
2023-01-13T15:25:51.334Z,5.55
2023-01-13T15:28:20.766Z,16.17
2023-01-13T15:30:49.790Z,9.45
2023-01-13T15:33:18.122Z,7.10
2023-01-13T15:35:48.702Z,14.80
2023-01-13T15:38:19.614Z,9.07
2023-01-13T15:40:48.834Z,14.25
2023-01-13T15:43:42.781Z,9.33
2023-01-13T15:46:37.084Z,8.05
2023-01-13T15:49:12.881Z,14.95
2023-01-13T15:51:40.596Z,16.50
2023-01-13T15:54:08.733Z,10.80
2023-01-13T15:56:38.099Z,12.60
2023-01-13T15:59:14.462Z,17.70
2023-01-13T16:01:42.096Z,7.80
2023-01-13T16:04:09.962Z,9.85
2023-01-13T16:06:37.726Z,9.88
2023-01-13T16:09:06.012Z,10.30
2023-01-13T16:11:33.851Z,23.02
2023-01-13T16:14:01.605Z,12.27
2023-01-13T16:16:29.774Z,10.60
2023-01-13T16:18:57.454Z,13.27
2023-01-13T16:21:25.270Z,12.13
2023-01-13T16:23:52.994Z,13.68
2023-01-13T16:26:26.790Z,13.38
2023-01-13T16:28:57.335Z,23.60
2023-01-13T16:31:31.980Z,15.88
2023-01-13T16:34:01.515Z,20.10
2023-01-13T16:36:31.738Z,12.80
2023-01-13T16:38:59.429Z,13.00
2023-01-13T16:41:27.031Z,16.85
2023-01-13T16:43:54.738Z,16.30
2023-01-13T16:46:29.658Z,19.63
2023-01-13T16:49:03.734Z,11.77
2023-01-13T16:51:31.404Z,11.05
2023-01-13T16:53:59.248Z,13.95
2023-01-13T16:56:30.075Z,16.80
2023-01-13T16:59:01.329Z,12.15
2023-01-13T17:01:31.914Z,8.57
2023-01-13T17:04:00.292Z,11.13
2023-01-13T17:06:32.471Z,15.82
2023-01-13T17:09:15.381Z,11.98
2023-01-13T17:11:42.979Z,19.13
2023-01-13T17:14:18.991Z,18.33
2023-01-13T17:16:47.791Z,20.90
2023-01-13T17:19:15.437Z,18.15
2023-01-13T17:21:43.564Z,14.43
2023-01-13T17:24:12.443Z,10.43
2023-01-13T17:26:44.037Z,13.68
2023-01-13T17:29:14.685Z,14.40
2023-01-13T17:31:42.540Z,9.23
2023-01-13T17:34:11.888Z,8.52
2023-01-13T17:36:39.835Z,16.45
2023-01-13T17:39:07.451Z,13.90
2023-01-13T17:41:35.110Z,10.63
2023-01-13T17:44:02.650Z,10.23
2023-01-13T17:46:30.230Z,23.25
2023-01-13T17:48:57.889Z,17.52
2023-01-13T17:51:25.646Z,10.48
2023-01-13T17:53:53.901Z,6.80
2023-01-13T17:56:21.764Z,11.18
2023-01-13T17:58:49.334Z,12.52
2023-01-13T18:01:19.677Z,18.90
2023-01-13T18:03:48.303Z,11.35
2023-01-13T18:06:22.105Z,12.82
2023-01-13T18:08:50.829Z,18.90
2023-01-13T18:11:20.197Z,13.30
2023-01-13T18:13:55.225Z,21.60
2023-01-13T18:16:24.329Z,15.05
2023-01-13T18:18:52.868Z,22.60
2023-01-13T18:21:45.123Z,16.38
2023-01-13T18:24:34.255Z,19.60
2023-01-13T18:27:21.292Z,13.15
2023-01-13T18:29:57.026Z,14.90
2023-01-13T18:32:31.435Z,15.50
2023-01-13T18:35:09.661Z,13.32
2023-01-13T18:37:40.357Z,19.48
2023-01-13T18:40:11.399Z,27.83
2023-01-13T18:42:51.855Z,11.82
2023-01-13T18:45:21.672Z,13.52
2023-01-13T18:47:49.284Z,15.65
2023-01-13T18:50:17.552Z,12.63
2023-01-13T18:52:45.374Z,13.63
2023-01-13T18:55:13.410Z,23.02
2023-01-13T18:57:41.256Z,13.60
2023-01-13T19:00:12.400Z,13.63
2023-01-13T19:02:40.347Z,7.38
2023-01-13T19:05:08.209Z,21.58
2023-01-13T19:07:36.752Z,18.05
2023-01-13T19:10:06.315Z,11.55
2023-01-13T19:12:34.168Z,22.48
2023-01-13T19:15:02.363Z,11.95
2023-01-13T19:17:34.962Z,18.73
2023-01-13T19:20:05.042Z,13.70
2023-01-13T19:22:34.499Z,13.20
2023-01-13T19:25:03.585Z,17.58
2023-01-13T19:27:39.919Z,22.23
2023-01-13T19:30:08.683Z,16.00
2023-01-13T19:32:37.077Z,12.30
2023-01-13T19:35:05.421Z,12.55
2023-01-13T19:37:34.557Z,16.23
2023-01-13T19:40:09.285Z,15.57
2023-01-13T19:42:55.852Z,18.65
2023-01-13T19:45:26.524Z,17.73
2023-01-13T19:47:55.843Z,20.27
2023-01-13T19:50:24.533Z,23.20
2023-01-13T19:52:52.471Z,18.33
2023-01-13T19:55:20.557Z,13.63
2023-01-13T19:57:48.315Z,14.55
2023-01-13T20:00:20.437Z,11.07
2023-01-13T20:02:51.948Z,10.20
2023-01-13T20:05:22.631Z,19.10
2023-01-13T20:07:51.282Z,15.55
2023-01-13T20:10:21.339Z,20.65
2023-01-13T20:12:49.516Z,18.38
2023-01-13T20:15:17.161Z,24.42
2023-01-13T20:17:45.132Z,16.33
2023-01-13T20:20:14.991Z,13.55
2023-01-13T20:22:42.670Z,22.02
2023-01-13T20:25:11.583Z,15.77
2023-01-13T20:27:39.301Z,18.27
2023-01-13T20:30:09.645Z,21.40
2023-01-13T20:32:37.821Z,22.80
2023-01-13T20:35:07.267Z,13.63
2023-01-13T20:37:36.928Z,17.13
2023-01-13T20:40:06.289Z,21.60
2023-01-13T20:42:44.548Z,9.52
2023-01-13T20:45:19.866Z,14.70
2023-01-13T20:47:47.825Z,17.00
2023-01-13T20:50:16.082Z,22.48
2023-01-13T20:52:44.148Z,14.45
2023-01-13T20:55:12.230Z,23.30
2023-01-13T20:57:41.099Z,20.13
2023-01-13T21:00:10.426Z,20.10
2023-01-13T21:02:39.801Z,19.65
2023-01-13T21:05:08.039Z,32.42
2023-01-13T21:07:35.583Z,24.38
2023-01-13T21:10:03.872Z,14.80
2023-01-13T21:12:50.151Z,14.48
2023-01-13T21:15:17.781Z,20.00
2023-01-13T21:18:05.082Z,20.33
2023-01-13T21:20:37.289Z,12.27
2023-01-13T21:23:05.806Z,20.23
2023-01-13T21:25:35.395Z,11.98
2023-01-13T21:28:05.641Z,29.40
2023-01-13T21:30:34.003Z,14.68
2023-01-13T21:33:03.956Z,21.40
2023-01-13T21:37:59.315Z,22.95
2023-01-13T21:40:27.027Z,19.15
2023-01-13T21:43:13.009Z,22.13
2023-01-13T21:45:59.082Z,15.60
2023-01-13T21:48:26.886Z,18.77
2023-01-13T21:50:54.361Z,15.52
2023-01-13T21:53:22.053Z,17.10
2023-01-13T21:55:52.626Z,20.25
2023-01-13T21:58:20.219Z,11.45
2023-01-13T22:00:48.942Z,15.63
2023-01-13T22:03:18.715Z,12.32
2023-01-13T22:05:47.176Z,7.20
2023-01-13T22:08:14.738Z,14.85
2023-01-13T22:11:02.629Z,15.93
2023-01-13T22:13:49.510Z,10.68
2023-01-13T22:16:17.242Z,19.75
2023-01-13T22:18:44.936Z,15.18
2023-01-13T22:21:12.654Z,22.15
2023-01-13T22:23:40.212Z,15.85
2023-01-13T22:26:08.397Z,12.23
2023-01-13T22:28:45.242Z,14.27
2023-01-13T22:31:15.494Z,9.48
2023-01-13T22:33:43.658Z,16.70
2023-01-13T22:36:11.332Z,12.10
2023-01-13T22:38:39.163Z,17.55
2023-01-13T22:41:09.246Z,22.58
2023-01-13T22:43:38.156Z,18.55
2023-01-13T22:46:09.102Z,15.10
2023-01-13T22:48:37.701Z,18.98
2023-01-13T22:51:11.012Z,19.67
2023-01-13T22:53:39.445Z,14.45
2023-01-13T22:56:07.887Z,13.57
2023-01-13T22:58:35.528Z,13.52
2023-01-13T23:01:15.265Z,14.70
2023-01-13T23:03:46.343Z,16.08
2023-01-13T23:06:14.244Z,11.95
2023-01-13T23:08:41.845Z,23.42
2023-01-13T23:11:11.698Z,18.90
2023-01-13T23:13:39.928Z,15.52
2023-01-13T23:16:13.291Z,17.67
2023-01-13T23:18:48.316Z,11.90
2023-01-13T23:21:22.485Z,17.67
2023-01-13T23:23:50.450Z,19.17
2023-01-13T23:26:18.487Z,8.95
2023-01-13T23:28:46.278Z,14.88
2023-01-13T23:31:19.426Z,5.38
2023-01-13T23:33:47.458Z,17.20
2023-01-13T23:36:20.988Z,15.43
2023-01-13T23:38:49.068Z,17.88
2023-01-13T23:41:18.936Z,22.20
2023-01-13T23:46:26.080Z,10.25
2023-01-13T23:48:55.729Z,22.63
2023-01-13T23:51:26.151Z,15.82
2023-01-13T23:53:54.753Z,8.70
2023-01-13T23:56:24.767Z,13.73
